Time;durP1;ratioP1;P1;durP2;ratioP2;P2;SDS_P1;SDS_P2;PMS_P1;PMS_P2;Temp;Humidity;BMP_temperature;BMP_pressure;BME280_temperature;BME280_humidity;BME280_pressure;Samples;Min_cycle;Max_cycle;Signal;HPM_P1;HPM_P2
2023/10/31 00:01:48;;;;;;;0.88;0.80;;;;;;;22.17;49.60;99331.44;5027216;28;20026;-44
2023/10/31 00:04:14;;;;;;;1.08;0.90;;;;;;;22.16;49.44;99323.50;5028753;28;20506;-44
2023/10/31 00:06:39;;;;;;;0.98;0.80;;;;;;;22.19;49.54;99331.19;5024563;28;20037;-45
2023/10/31 00:09:04;;;;;;;0.68;0.63;;;;;;;22.19;49.53;99323.88;5034162;28;20056;-45
2023/10/31 00:11:30;;;;;;;1.40;0.85;;;;;;;22.21;49.23;99342.59;5038319;28;20069;-45
2023/10/31 00:13:55;;;;;;;0.95;0.70;;;;;;;22.18;49.29;99329.53;5032877;28;20064;-45
2023/10/31 00:16:20;;;;;;;0.60;0.60;;;;;;;22.23;49.29;99343.22;5023282;28;20149;-43
2023/10/31 00:18:45;;;;;;;0.52;0.50;;;;;;;22.25;49.01;99351.09;5031938;28;20517;-44
2023/10/31 00:21:11;;;;;;;0.57;0.57;;;;;;;22.26;49.14;99360.84;5036461;28;20537;-44
2023/10/31 00:23:45;;;;;;;0.82;0.50;;;;;;;22.26;48.90;99358.16;5036635;28;20061;-44
2023/10/31 00:26:11;;;;;;;0.60;0.55;;;;;;;22.26;48.96;99367.13;5035166;28;20614;-46
2023/10/31 00:28:36;;;;;;;0.98;0.60;;;;;;;22.26;48.92;99377.97;5035386;28;20033;-45
2023/10/31 00:31:03;;;;;;;0.50;0.50;;;;;;;22.09;48.96;99355.22;5034955;28;20034;-45
2023/10/31 00:33:29;;;;;;;0.40;0.40;;;;;;;22.17;49.06;99374.75;5039582;28;20029;-44
2023/10/31 00:35:54;;;;;;;0.50;0.50;;;;;;;22.21;49.04;99384.03;5039783;28;20045;-44
2023/10/31 00:38:19;;;;;;;1.15;0.73;;;;;;;22.24;49.01;99388.16;5031586;28;20037;-46
2023/10/31 00:40:44;;;;;;;0.93;0.60;;;;;;;22.22;48.65;99387.59;5033915;28;20065;-43
2023/10/31 00:43:10;;;;;;;1.38;0.57;;;;;;;22.21;48.92;99385.91;5033900;28;20036;-44
2023/10/31 00:45:35;;;;;;;0.82;0.65;;;;;;;22.17;48.60;99398.25;5035275;28;20501;-44
2023/10/31 00:48:00;;;;;;;0.60;0.60;;;;;;;22.12;48.88;99398.06;5033149;28;20072;-44
2023/10/31 00:50:25;;;;;;;0.70;0.60;;;;;;;22.06;48.76;99412.53;5029025;28;20113;-46
2023/10/31 00:52:51;;;;;;;0.82;0.60;;;;;;;22.01;49.04;99423.19;5037505;28;20064;-44
2023/10/31 00:55:16;;;;;;;0.90;0.60;;;;;;;21.95;48.98;99433.03;5036084;28;20086;-43
2023/10/31 00:57:41;;;;;;;0.50;0.50;;;;;;;21.93;49.03;99440.56;5038213;28;20044;-43
2023/10/31 01:00:09;;;;;;;0.60;0.60;;;;;;;21.88;49.07;99441.22;5039140;28;20052;-44
2023/10/31 01:02:34;;;;;;;1.23;0.57;;;;;;;21.80;49.08;99432.59;5030863;28;20061;-44
2023/10/31 01:05:00;;;;;;;0.63;0.60;;;;;;;21.81;49.37;99445.06;5032825;28;20083;-44
2023/10/31 01:07:25;;;;;;;0.65;0.55;;;;;;;21.80;49.37;99460.47;5036932;28;20089;-44
2023/10/31 01:09:50;;;;;;;0.93;0.60;;;;;;;21.73;49.56;99462.38;5029551;28;20058;-45
2023/10/31 01:12:16;;;;;;;0.70;0.52;;;;;;;21.75;49.89;99472.97;5032015;28;20060;-44
2023/10/31 01:14:41;;;;;;;0.75;0.55;;;;;;;21.72;49.38;99482.38;5026711;28;20030;-45
2023/10/31 01:17:07;;;;;;;0.82;0.68;;;;;;;21.70;49.47;99479.88;5033501;28;20045;-44
2023/10/31 01:19:32;;;;;;;0.85;0.60;;;;;;;21.64;49.74;99474.53;5035154;28;20543;-44
2023/10/31 01:21:57;;;;;;;0.50;0.50;;;;;;;21.65;49.67;99484.31;5038656;28;20293;-44
2023/10/31 01:24:23;;;;;;;1.60;0.50;;;;;;;21.63;49.82;99481.84;5037519;28;20030;-44
2023/10/31 01:26:48;;;;;;;0.63;0.57;;;;;;;21.61;49.56;99483.91;5027544;28;20038;-46
2023/10/31 01:29:14;;;;;;;1.08;0.63;;;;;;;21.60;49.91;99494.97;5032830;28;20030;-45
2023/10/31 01:31:41;;;;;;;0.82;0.60;;;;;;;21.57;49.54;99500.81;5027123;28;20036;-44
2023/10/31 01:34:06;;;;;;;0.77;0.60;;;;;;;21.56;49.86;99509.97;5031528;28;20029;-45
2023/10/31 01:36:31;;;;;;;0.70;0.60;;;;;;;21.52;49.69;99504.19;5041237;28;20034;-44
2023/10/31 01:38:56;;;;;;;1.67;0.60;;;;;;;21.48;50.07;99507.53;5037774;28;20300;-44
2023/10/31 01:41:22;;;;;;;1.30;0.50;;;;;;;21.48;50.05;99518.34;5019343;28;20025;-44
2023/10/31 01:43:48;;;;;;;0.85;0.45;;;;;;;21.46;50.09;99521.28;5035558;28;20036;-45
2023/10/31 01:46:13;;;;;;;0.70;0.60;;;;;;;21.31;49.99;99507.22;5033854;28;20060;-44
2023/10/31 01:48:39;;;;;;;0.98;0.60;;;;;;;21.41;50.08;99527.34;5035553;28;20034;-46
2023/10/31 01:51:04;;;;;;;0.40;0.40;;;;;;;21.34;50.10;99521.16;5027481;28;20061;-44
2023/10/31 01:53:33;;;;;;;1.10;0.80;;;;;;;21.29;49.91;99518.25;5030943;28;20026;-45
2023/10/31 01:56:01;;;;;;;0.60;0.55;;;;;;;21.37;50.27;99536.13;5019769;28;20025;-44
2023/10/31 01:58:30;;;;;;;0.47;0.40;;;;;;;21.29;50.20;99531.78;5038060;28;20059;-44
2023/10/31 02:00:56;;;;;;;1.35;0.63;;;;;;;21.32;50.11;99544.03;5038286;28;20026;-45
2023/10/31 02:03:21;;;;;;;0.50;0.50;;;;;;;21.12;50.29;99514.41;5031361;28;20057;-44
2023/10/31 02:05:47;;;;;;;0.82;0.50;;;;;;;21.10;50.39;99519.19;5033362;28;20041;-45
2023/10/31 02:08:12;;;;;;;0.47;0.43;;;;;;;21.27;50.50;99549.25;5017294;28;20032;-46
2023/10/31 02:10:38;;;;;;;1.30;0.40;;;;;;;21.25;50.53;99549.47;5030901;28;20550;-45
2023/10/31 02:13:16;;;;;;;0.63;0.60;;;;;;;21.22;50.58;99555.28;5031398;28;20060;-44
2023/10/31 02:15:41;;;;;;;1.38;0.80;;;;;;;21.20;50.71;99552.81;5027127;28;20030;-43
2023/10/31 02:18:08;;;;;;;1.25;0.70;;;;;;;21.20;50.38;99560.09;5035988;28;20025;-44
2023/10/31 02:20:33;;;;;;;0.90;0.57;;;;;;;21.19;50.46;99555.72;5035951;28;20026;-44
2023/10/31 02:22:58;;;;;;;1.45;0.70;;;;;;;21.16;50.73;99565.13;5038866;28;20026;-45
2023/10/31 02:25:24;;;;;;;0.77;0.50;;;;;;;21.13;50.44;99568.25;5032508;28;20413;-44
2023/10/31 02:27:49;;;;;;;1.90;0.70;;;;;;;21.12;50.75;99569.28;5028055;28;20472;-44
2023/10/31 02:30:14;;;;;;;0.80;0.60;;;;;;;21.06;50.36;99566.59;5035236;28;20035;-45
2023/10/31 02:32:40;;;;;;;0.80;0.60;;;;;;;21.09;50.70;99577.81;5032495;28;20025;-44
2023/10/31 02:35:07;;;;;;;0.50;0.50;;;;;;;21.08;50.58;99578.03;5028062;28;20025;-45
2023/10/31 02:37:32;;;;;;;1.08;0.60;;;;;;;21.02;50.50;99566.19;5028937;28;20034;-43
2023/10/31 02:39:58;;;;;;;1.25;0.77;;;;;;;21.04;50.78;99579.53;5034090;28;20086;-44
2023/10/31 02:42:24;;;;;;;1.17;0.70;;;;;;;20.97;50.76;99566.84;5030995;28;20061;-44
2023/10/31 02:44:49;;;;;;;0.98;0.70;;;;;;;20.96;51.06;99567.06;5036116;28;20460;-44
2023/10/31 02:47:14;;;;;;;1.08;0.80;;;;;;;20.99;50.67;99580.16;5034234;28;20018;-44
2023/10/31 02:49:39;;;;;;;1.10;0.82;;;;;;;20.93;50.73;99575.59;5032080;28;20077;-46
2023/10/31 02:52:05;;;;;;;0.95;0.50;;;;;;;20.96;51.03;99580.59;5028376;28;20045;-43
2023/10/31 02:54:30;;;;;;;0.98;0.68;;;;;;;20.95;50.85;99589.75;5035267;28;20484;-44
2023/10/31 02:56:55;;;;;;;0.85;0.65;;;;;;;20.87;51.04;99576.47;5031170;28;20304;-44
2023/10/31 02:59:21;;;;;;;1.60;0.70;;;;;;;20.93;50.94;99586.41;5015013;28;20022;-44
2023/10/31 03:01:46;;;;;;;0.90;0.55;;;;;;;20.91;50.76;99586.63;5035703;28;20026;-44
2023/10/31 03:04:11;;;;;;;0.95;0.80;;;;;;;20.91;51.00;99593.91;5029845;28;20524;-44
2023/10/31 03:06:37;;;;;;;2.10;0.98;;;;;;;20.89;50.89;99598.69;5033346;28;20028;-45
2023/10/31 03:09:02;;;;;;;1.30;0.80;;;;;;;20.88;50.77;99597.84;5035506;28;20048;-44
2023/10/31 03:11:27;;;;;;;1.00;0.70;;;;;;;20.87;51.05;99601.59;5014307;28;20058;-44
2023/10/31 03:13:53;;;;;;;0.60;0.60;;;;;;;20.85;50.92;99603.69;5033285;28;20032;-44
2023/10/31 03:16:19;;;;;;;1.45;0.95;;;;;;;20.84;50.91;99601.19;5031423;28;20026;-45
2023/10/31 03:18:46;;;;;;;0.93;0.70;;;;;;;20.83;50.86;99602.25;5029343;28;20052;-44
2023/10/31 03:21:11;;;;;;;0.93;0.70;;;;;;;20.82;51.04;99606.81;5030657;28;20072;-43
2023/10/31 03:23:36;;;;;;;0.82;0.70;;;;;;;20.80;50.99;99606.19;5036514;28;20029;-44
2023/10/31 03:26:01;;;;;;;0.82;0.70;;;;;;;20.79;51.38;99609.94;5034742;28;20057;-45
2023/10/31 03:28:27;;;;;;;0.90;0.70;;;;;;;20.78;51.16;99616.41;5030405;28;20025;-44
2023/10/31 03:30:53;;;;;;;0.93;0.60;;;;;;;20.76;51.36;99617.63;5034162;28;20123;-46
2023/10/31 03:33:18;;;;;;;0.95;0.60;;;;;;;20.76;51.08;99618.47;5033126;28;20036;-45
2023/10/31 03:35:44;;;;;;;1.15;0.80;;;;;;;20.74;51.05;99619.75;5030144;28;20048;-44
2023/10/31 03:38:09;;;;;;;0.70;0.70;;;;;;;20.74;51.32;99623.25;5027614;28;20083;-44
2023/10/31 03:40:34;;;;;;;1.70;0.80;;;;;;;20.72;51.38;99626.16;5025690;28;20022;-44
2023/10/31 03:43:00;;;;;;;1.70;0.80;;;;;;;20.68;51.34;99624.09;5033458;28;20034;-44
2023/10/31 03:45:25;;;;;;;1.00;0.70;;;;;;;20.69;51.19;99625.78;5035667;28;20048;-44
2023/10/31 03:47:50;;;;;;;1.20;0.80;;;;;;;20.70;51.20;99632.84;5018961;28;20033;-43
2023/10/31 03:50:16;;;;;;;0.98;0.68;;;;;;;20.66;51.41;99640.53;5036714;28;20079;-45
2023/10/31 03:52:41;;;;;;;1.38;0.82;;;;;;;20.66;51.14;99635.13;5032638;28;20055;-44
2023/10/31 03:55:07;;;;;;;0.70;0.63;;;;;;;20.66;51.29;99643.22;5033665;28;20061;-44
2023/10/31 03:57:33;;;;;;;0.80;0.60;;;;;;;20.65;51.56;99646.97;5029421;28;20037;-44
2023/10/31 03:59:58;;;;;;;0.63;0.50;;;;;;;20.64;51.20;99649.88;5030661;28;20092;-44
2023/10/31 04:02:23;;;;;;;1.00;0.63;;;;;;;20.62;51.50;99652.78;5028485;28;20021;-44
2023/10/31 04:04:48;;;;;;;1.02;0.73;;;;;;;20.62;51.20;99652.78;5028426;28;20099;-44
2023/10/31 04:07:14;;;;;;;1.65;0.80;;;;;;;20.61;51.38;99661.94;5031763;28;20032;-44
2023/10/31 04:09:39;;;;;;;0.98;0.70;;;;;;;20.60;51.52;99662.13;5032275;28;20095;-44
2023/10/31 04:12:05;;;;;;;0.88;0.60;;;;;;;20.59;51.32;99668.56;5035315;28;20391;-45
2023/10/31 04:14:30;;;;;;;0.80;0.60;;;;;;;20.57;51.59;99660.69;5029290;28;20026;-45
2023/10/31 04:16:55;;;;;;;0.88;0.60;;;;;;;20.57;51.67;99670.66;5028028;28;20034;-47
2023/10/31 04:19:20;;;;;;;1.38;0.77;;;;;;;20.56;51.57;99668.97;5031025;28;20089;-44
2023/10/31 04:21:46;;;;;;;0.77;0.60;;;;;;;20.55;51.32;99670.03;5027821;28;20057;-44
2023/10/31 04:24:11;;;;;;;0.52;0.50;;;;;;;20.53;51.35;99675.66;5030785;28;20033;-44
2023/10/31 04:26:36;;;;;;;1.10;0.68;;;;;;;20.53;51.61;99672.13;5026826;28;20033;-44
2023/10/31 04:29:02;;;;;;;1.50;1.08;;;;;;;20.52;51.44;99674.00;5032185;28;20056;-45
2023/10/31 04:31:27;;;;;;;0.85;0.70;;;;;;;20.49;51.33;99678.97;5031391;28;20048;-44
2023/10/31 04:33:52;;;;;;;1.02;0.70;;;;;;;20.49;51.41;99687.09;5035243;28;20111;-43
2023/10/31 04:36:17;;;;;;;0.88;0.60;;;;;;;20.47;51.81;99687.22;5032308;28;20026;-44
2023/10/31 04:38:43;;;;;;;0.73;0.73;;;;;;;20.46;51.74;99691.81;5025822;28;20022;-44
2023/10/31 04:41:09;;;;;;;1.20;1.00;;;;;;;20.47;51.59;99692.63;5027260;28;20037;-44
2023/10/31 04:43:34;;;;;;;1.13;0.70;;;;;;;20.26;51.54;99666.69;5031665;28;20026;-45
2023/10/31 04:45:59;;;;;;;1.30;0.85;;;;;;;20.43;51.87;99708.44;5022032;28;20030;-44
2023/10/31 04:48:25;;;;;;;1.35;0.80;;;;;;;20.43;51.86;99705.75;5038676;28;20081;-44
2023/10/31 04:50:50;;;;;;;0.68;0.65;;;;;;;20.43;51.24;99715.69;5030947;28;20053;-43
2023/10/31 04:53:15;;;;;;;0.73;0.60;;;;;;;20.33;51.63;99704.47;5030426;28;20077;-44
2023/10/31 04:55:40;;;;;;;0.88;0.70;;;;;;;20.36;51.61;99715.72;5023727;28;20424;-44
2023/10/31 04:58:06;;;;;;;1.13;0.80;;;;;;;20.39;51.58;99728.78;5032909;28;20085;-44
2023/10/31 05:00:31;;;;;;;1.27;0.80;;;;;;;20.33;51.61;99724.22;5032453;28;20025;-43
2023/10/31 05:02:57;;;;;;;0.60;0.60;;;;;;;20.38;51.35;99731.69;5026366;28;20451;-44
2023/10/31 05:05:23;;;;;;;0.50;0.50;;;;;;;20.36;52.05;99733.78;5031679;28;20036;-45
2023/10/31 05:07:48;;;;;;;0.95;0.60;;;;;;;20.35;51.40;99738.34;5027553;28;20034;-44
2023/10/31 05:10:13;;;;;;;1.50;0.70;;;;;;;20.34;51.44;99730.44;5038242;28;20046;-44
2023/10/31 05:12:39;;;;;;;0.68;0.60;;;;;;;20.34;51.37;99735.84;5039767;28;20048;-44
2023/10/31 05:15:04;;;;;;;0.98;0.88;;;;;;;20.33;51.74;99736.88;5034991;28;20492;-44
2023/10/31 05:17:30;;;;;;;0.50;0.50;;;;;;;20.31;51.79;99742.50;5035970;28;20048;-44
2023/10/31 05:19:55;;;;;;;0.63;0.60;;;;;;;20.31;51.83;99739.78;5020255;28;20088;-44
2023/10/31 05:22:20;;;;;;;0.90;0.60;;;;;;;20.30;51.78;99740.81;5033379;28;20037;-44
2023/10/31 05:24:46;;;;;;;1.38;0.75;;;;;;;20.27;51.67;99735.84;5032745;28;20044;-47
2023/10/31 05:27:11;;;;;;;0.80;0.60;;;;;;;20.29;51.86;99738.31;5027247;28;20037;-44
2023/10/31 05:29:38;;;;;;;0.90;0.70;;;;;;;20.28;51.80;99739.38;5030214;28;20037;-45
2023/10/31 05:32:04;;;;;;;0.60;0.60;;;;;;;20.27;51.91;99745.81;5033888;28;20029;-45
2023/10/31 05:34:29;;;;;;;1.00;0.50;;;;;;;20.28;51.83;99742.06;5039046;28;20094;-45
2023/10/31 05:36:54;;;;;;;1.95;0.60;;;;;;;20.27;52.12;99749.34;5039432;28;20029;-47
2023/10/31 05:39:20;;;;;;;0.70;0.60;;;;;;;20.26;52.00;99749.53;5029737;28;20548;-45
2023/10/31 05:41:45;;;;;;;1.90;0.63;;;;;;;20.25;52.13;99753.28;5032602;28;20049;-44
2023/10/31 05:44:10;;;;;;;2.10;0.90;;;;;;;20.24;52.11;99760.53;5033360;28;20069;-45
2023/10/31 05:46:41;;;;;;;0.80;0.70;;;;;;;20.23;52.19;99761.59;5032668;28;20018;-45
2023/10/31 05:49:07;;;;;;;0.98;0.70;;;;;;;20.19;52.06;99763.03;5028687;28;20026;-45
2023/10/31 05:51:33;;;;;;;0.98;0.68;;;;;;;20.22;52.07;99765.31;5034055;28;20121;-44
2023/10/31 05:54:00;;;;;;;0.88;0.60;;;;;;;20.21;52.07;99763.63;5033034;28;20068;-44
2023/10/31 05:56:26;;;;;;;1.00;0.63;;;;;;;20.20;52.13;99768.22;5016569;28;20034;-47
2023/10/31 05:58:51;;;;;;;0.55;0.50;;;;;;;20.20;52.31;99764.69;5037912;28;20035;-44
2023/10/31 06:01:16;;;;;;;1.08;0.63;;;;;;;20.20;52.15;99765.50;5036144;28;20060;-44
2023/10/31 06:03:45;;;;;;;0.70;0.60;;;;;;;20.19;52.33;99769.25;5032846;28;20056;-45
2023/10/31 06:06:11;;;;;;;1.25;0.80;;;;;;;20.05;52.85;99748.69;5032783;28;20038;-46
2023/10/31 06:08:37;;;;;;;0.63;0.50;;;;;;;20.19;52.86;99777.34;5031998;28;20120;-47
2023/10/31 06:11:03;;;;;;;0.88;0.60;;;;;;;20.17;52.58;99774.00;5030775;28;20045;-48
2023/10/31 06:13:29;;;;;;;1.45;0.65;;;;;;;20.05;52.69;99756.78;5032877;28;20131;-47
2023/10/31 06:15:55;;;;;;;1.15;0.50;;;;;;;20.19;53.04;99790.00;5029333;28;20023;-50
2023/10/31 06:18:20;;;;;;;0.63;0.55;;;;;;;20.19;53.02;99790.00;5031332;28;20094;-51
2023/10/31 06:20:45;;;;;;;1.10;0.60;;;;;;;20.18;52.90;99799.16;5037442;28;20362;-47
2023/10/31 06:23:11;;;;;;;1.85;0.82;;;;;;;20.18;52.97;99802.69;5015936;28;20108;-44
2023/10/31 06:25:36;;;;;;;0.65;0.60;;;;;;;20.17;53.20;99806.38;5033193;28;20461;-45
2023/10/31 06:28:01;;;;;;;1.15;0.70;;;;;;;20.17;53.04;99803.69;5009429;28;20416;-45
2023/10/31 06:30:27;;;;;;;1.05;0.60;;;;;;;20.16;53.40;99812.84;5030958;28;20017;-45
2023/10/31 06:32:55;;;;;;;2.92;0.63;;;;;;;20.15;53.51;99819.28;5032237;28;20086;-47
2023/10/31 06:35:22;;;;;;;0.82;0.50;;;;;;;20.16;53.40;99820.09;5031597;28;20048;-44
2023/10/31 06:37:47;;;;;;;0.75;0.50;;;;;;;20.15;53.10;99823.84;5037801;28;20031;-44
2023/10/31 06:40:13;;;;;;;0.73;0.60;;;;;;;20.14;53.42;99822.19;5032928;28;20095;-45
2023/10/31 06:42:38;;;;;;;1.05;0.60;;;;;;;20.14;53.03;99827.59;5034358;28;20033;-46
2023/10/31 06:45:03;;;;;;;1.75;0.60;;;;;;;20.13;53.39;99829.41;5034458;28;20063;-46
2023/10/31 06:47:30;;;;;;;1.25;0.70;;;;;;;20.13;53.27;99839.38;5035740;28;20040;-46
2023/10/31 06:49:55;;;;;;;1.50;0.73;;;;;;;20.13;53.25;99836.69;5030137;28;20026;-45
2023/10/31 06:52:20;;;;;;;1.75;0.65;;;;;;;20.12;53.44;99843.13;5029704;28;20041;-45
2023/10/31 06:54:46;;;;;;;0.93;0.60;;;;;;;20.08;53.63;99831.06;5039117;28;20037;-46
2023/10/31 06:57:11;;;;;;;0.73;0.52;;;;;;;20.11;53.34;99839.59;5037792;28;20041;-44
2023/10/31 06:59:36;;;;;;;1.08;0.60;;;;;;;20.11;53.59;99836.06;5039928;28;20064;-45
2023/10/31 07:02:02;;;;;;;0.70;0.60;;;;;;;20.11;53.63;99842.31;5034350;28;20068;-45
2023/10/31 07:04:27;;;;;;;0.75;0.60;;;;;;;20.10;53.70;99839.81;5034109;28;20077;-44
2023/10/31 07:06:56;;;;;;;1.15;0.63;;;;;;;20.10;53.50;99845.22;5034275;28;20392;-44
2023/10/31 07:09:25;;;;;;;0.68;0.60;;;;;;;20.09;53.74;99844.38;5022125;28;20387;-44
2023/10/31 07:11:51;;;;;;;;;;;;;;;20.09;53.66;99852.47;5030384;28;20033;-45
2023/10/31 07:14:16;;;;;;;0.70;0.50;;;;;;;20.09;53.63;99855.19;5015596;28;19914;-45
2023/10/31 07:16:43;;;;;;;1.25;0.60;;;;;;;20.06;53.50;99854.75;5034682;28;20041;-44
2023/10/31 07:19:09;;;;;;;2.47;0.70;;;;;;;20.07;53.41;99865.31;5033765;28;20052;-44
2023/10/31 07:21:34;;;;;;;1.25;0.80;;;;;;;20.00;53.32;99852.84;5036453;28;20029;-44
2023/10/31 07:23:59;;;;;;;3.33;0.70;;;;;;;19.63;53.73;99801.03;5036428;28;20026;-44
2023/10/31 07:26:27;;;;;;;0.65;0.60;;;;;;;20.08;53.49;99876.94;5030448;28;20061;-44
2023/10/31 07:28:52;;;;;;;1.35;0.60;;;;;;;20.07;53.34;99876.13;5028872;28;20021;-44
2023/10/31 07:31:17;;;;;;;1.15;0.50;;;;;;;20.03;53.59;99874.84;5031921;28;20542;-44
2023/10/31 07:33:46;;;;;;;1.50;0.70;;;;;;;20.07;53.47;99872.59;5034391;28;20033;-47
2023/10/31 07:36:12;;;;;;;1.88;0.77;;;;;;;20.08;53.65;99885.88;5036323;28;20454;-46
2023/10/31 07:38:37;;;;;;;0.85;0.60;;;;;;;20.01;53.36;99868.84;5030601;28;20428;-45
2023/10/31 07:41:02;;;;;;;0.80;0.63;;;;;;;20.08;53.27;99891.28;5029919;28;20053;-43
2023/10/31 07:43:28;;;;;;;2.28;0.57;;;;;;;20.07;53.10;99895.00;5030991;28;20025;-45
2023/10/31 07:45:53;;;;;;;0.95;0.70;;;;;;;20.07;53.31;99895.00;5037125;28;20037;-44
2023/10/31 07:48:18;;;;;;;0.70;0.50;;;;;;;20.03;53.36;99896.44;5035369;28;20029;-45
2023/10/31 07:50:43;;;;;;;1.77;0.82;;;;;;;20.06;53.47;99900.63;5011706;28;20588;-45
2023/10/31 07:53:09;;;;;;;1.13;0.80;;;;;;;20.05;53.13;99896.22;5026816;28;20049;-44
2023/10/31 07:55:34;;;;;;;0.93;0.65;;;;;;;20.04;53.33;99903.50;5030398;28;20024;-45
2023/10/31 07:57:59;;;;;;;0.95;0.63;;;;;;;20.01;53.31;99906.63;5031392;28;20518;-44
2023/10/31 08:00:24;;;;;;;1.38;0.60;;;;;;;20.03;53.31;99907.22;5031601;28;20078;-45
2023/10/31 08:02:50;;;;;;;0.52;0.50;;;;;;;20.02;53.07;99905.56;5032651;28;20030;-44
2023/10/31 08:05:15;;;;;;;1.23;0.68;;;;;;;19.92;53.19;99900.56;5029718;28;20036;-46
2023/10/31 08:07:41;;;;;;;1.17;0.60;;;;;;;20.01;53.15;99916.53;5032376;28;20036;-44
2023/10/31 08:10:06;;;;;;;0.75;0.60;;;;;;;20.00;53.25;99918.41;5034291;28;20049;-45
2023/10/31 08:12:32;;;;;;;0.70;0.60;;;;;;;19.89;53.31;99902.81;5022766;28;20052;-45
2023/10/31 08:14:58;;;;;;;1.27;0.73;;;;;;;19.98;53.07;99921.31;5027575;28;20040;-45
2023/10/31 08:17:23;;;;;;;1.13;0.60;;;;;;;19.95;53.24;99918.19;5028179;28;20202;-44
2023/10/31 08:19:49;;;;;;;2.78;0.70;;;;;;;19.96;53.29;99928.81;5030446;28;20050;-49
2023/10/31 08:22:14;;;;;;;0.85;0.63;;;;;;;19.97;52.98;99927.75;5033429;28;20037;-45
2023/10/31 08:24:39;;;;;;;1.27;0.77;;;;;;;19.96;53.30;99931.50;5039324;28;20064;-47
2023/10/31 08:27:05;;;;;;;0.68;0.55;;;;;;;19.89;53.16;99917.13;5030359;28;20053;-45
2023/10/31 08:29:30;;;;;;;0.77;0.68;;;;;;;19.87;53.07;99921.03;5030030;28;20081;-44
2023/10/31 08:31:56;;;;;;;0.45;0.45;;;;;;;19.94;53.24;99944.34;5032537;28;20034;-44
2023/10/31 08:34:21;;;;;;;0.95;0.70;;;;;;;19.81;53.41;99919.97;5032984;28;20033;-45
2023/10/31 08:36:46;;;;;;;0.85;0.60;;;;;;;19.94;53.52;99944.34;5029602;28;20029;-44
2023/10/31 08:39:12;;;;;;;1.48;0.57;;;;;;;19.94;53.19;99946.22;5030573;28;20162;-45
2023/10/31 08:41:51;;;;;;;1.38;0.60;;;;;;;19.93;53.33;99950.78;5029152;28;20030;-46
2023/10/31 08:44:17;;;;;;;1.52;0.75;;;;;;;19.93;53.32;99945.38;5035074;28;20032;-45
2023/10/31 08:46:42;;;;;;;1.20;0.73;;;;;;;19.86;53.53;99940.97;5037683;28;20033;-45
2023/10/31 08:49:07;;;;;;;0.63;0.60;;;;;;;19.93;53.64;99961.56;5041648;28;20018;-47
2023/10/31 08:51:33;;;;;;;1.65;0.77;;;;;;;19.81;53.31;99941.56;5038597;28;20037;-49
2023/10/31 08:53:58;;;;;;;1.20;0.60;;;;;;;19.92;53.65;99965.31;5033580;28;20041;-47
2023/10/31 08:56:24;;;;;;;0.80;0.60;;;;;;;19.92;53.27;99975.22;5034727;28;20029;-45
2023/10/31 08:58:49;;;;;;;0.85;0.70;;;;;;;19.92;53.46;99972.53;5031907;28;20061;-46
2023/10/31 09:01:14;;;;;;;0.68;0.60;;;;;;;19.88;53.67;99968.56;5031793;28;20037;-45
2023/10/31 09:03:40;;;;;;;1.20;0.70;;;;;;;19.92;53.64;99970.69;5027451;28;20396;-47
2023/10/31 09:06:05;;;;;;;1.10;0.50;;;;;;;19.91;53.37;99976.28;5030583;28;20444;-45
2023/10/31 09:08:31;;;;;;;1.48;0.60;;;;;;;19.91;53.39;99979.78;5035747;28;20033;-45
2023/10/31 09:10:56;;;;;;;0.60;0.50;;;;;;;19.68;53.47;99944.19;5026498;28;20053;-47
2023/10/31 09:13:21;;;;;;;1.10;0.75;;;;;;;19.92;53.70;99983.31;5021013;28;20036;-45
2023/10/31 09:15:47;;;;;;;1.05;0.60;;;;;;;19.91;53.51;99987.88;5031969;28;20054;-44
2023/10/31 09:18:12;;;;;;;0.95;0.60;;;;;;;19.93;53.85;99998.50;5036907;28;20025;-48
2023/10/31 09:20:38;;;;;;;0.93;0.70;;;;;;;19.94;53.91;99998.28;5032227;28;20535;-44
2023/10/31 09:23:03;;;;;;;0.98;0.60;;;;;;;19.94;53.73;100003.69;5029654;28;20048;-44
2023/10/31 09:25:30;;;;;;;1.33;0.65;;;;;;;19.95;53.63;100005.34;5030224;28;20465;-45
2023/10/31 09:27:55;;;;;;;0.95;0.55;;;;;;;19.95;53.89;100008.06;5033548;28;20089;-46
2023/10/31 09:30:20;;;;;;;1.02;0.80;;;;;;;19.96;54.21;100000.78;5033055;28;20029;-45
2023/10/31 09:32:46;;;;;;;0.82;0.80;;;;;;;19.97;53.86;100013.25;5037315;28;20038;-45
2023/10/31 09:35:12;;;;;;;1.42;0.80;;;;;;;19.98;53.87;100020.31;5035337;28;20048;-46
2023/10/31 09:37:39;;;;;;;1.42;0.65;;;;;;;19.98;54.10;100021.16;5030853;28;20030;-47
2023/10/31 09:40:04;;;;;;;1.63;0.60;;;;;;;19.98;54.06;100021.16;5029078;28;20033;-45
2023/10/31 09:42:30;;;;;;;0.60;0.60;;;;;;;20.00;54.16;100039.00;5036322;28;20032;-45
2023/10/31 09:44:55;;;;;;;1.95;0.63;;;;;;;20.00;53.99;100042.53;5028249;28;20045;-45
2023/10/31 09:47:20;;;;;;;0.80;0.73;;;;;;;19.97;54.28;100029.47;5016804;28;20038;-47
2023/10/31 09:49:47;;;;;;;0.90;0.65;;;;;;;20.00;54.19;100034.44;5034742;28;20054;-44
2023/10/31 09:52:12;;;;;;;0.50;0.50;;;;;;;20.01;53.79;100041.53;5034341;28;20030;-45
2023/10/31 09:54:38;;;;;;;1.20;1.02;;;;;;;20.01;53.71;100049.63;5019252;28;20064;-47
2023/10/31 09:57:04;;;;;;;0.70;0.60;;;;;;;20.02;54.02;100045.88;5021452;28;20025;-45
2023/10/31 09:59:29;;;;;;;1.23;0.60;;;;;;;20.00;53.57;100056.03;5034552;28;20071;-45
2023/10/31 10:01:54;;;;;;;1.58;0.65;;;;;;;20.01;53.64;100064.94;5035554;28;20038;-47
2023/10/31 10:04:21;;;;;;;3.45;0.80;;;;;;;20.01;53.78;100070.34;5007751;28;20038;-45
2023/10/31 10:07:02;;;;;;;1.58;0.70;;;;;;;20.00;53.54;100063.28;5032175;28;20395;-45
2023/10/31 10:09:29;;;;;;;1.23;0.70;;;;;;;19.99;53.77;100070.56;5032445;28;20032;-45
2023/10/31 10:11:54;;;;;;;0.82;0.70;;;;;;;19.99;53.60;100059.75;5038594;28;20033;-45
2023/10/31 10:14:23;;;;;;;2.47;0.80;;;;;;;20.00;54.05;100063.28;5039663;28;20048;-47
2023/10/31 10:16:48;;;;;;;0.85;0.73;;;;;;;19.99;53.93;100065.16;5030386;28;20108;-45
2023/10/31 10:19:19;;;;;;;1.05;0.60;;;;;;;19.98;53.57;100067.03;5031879;28;20111;-45
2023/10/31 10:21:52;;;;;;;0.60;0.60;;;;;;;20.01;53.70;100070.34;5033210;28;20025;-45
2023/10/31 10:24:18;;;;;;;1.52;0.60;;;;;;;20.00;54.10;100076.78;5030890;28;20061;-44
2023/10/31 10:26:44;;;;;;;2.50;0.70;;;;;;;19.95;54.07;100069.28;5031918;28;20093;-46
2023/10/31 10:29:09;;;;;;;0.85;0.60;;;;;;;20.03;54.03;100084.50;5026454;28;20030;-45
2023/10/31 10:31:35;;;;;;;0.77;0.70;;;;;;;20.01;53.62;100076.59;5035164;28;20056;-45
2023/10/31 10:34:01;;;;;;;0.73;0.60;;;;;;;20.06;53.95;100093.03;5036484;28;20037;-46
2023/10/31 10:36:27;;;;;;;1.35;0.80;;;;;;;20.05;54.14;100080.56;5035367;28;20025;-45
2023/10/31 10:38:57;;;;;;;1.05;0.80;;;;;;;20.09;53.96;100086.38;5039056;28;20102;-47
2023/10/31 10:41:25;;;;;;;1.27;0.70;;;;;;;20.14;53.63;100090.19;5031697;28;20037;-45
2023/10/31 10:44:04;;;;;;;1.15;0.60;;;;;;;20.18;53.83;100090.63;5032916;28;20029;-44
2023/10/31 10:46:29;;;;;;;;;;;;;;;20.19;53.39;100101.22;5016145;28;20065;-44
2023/10/31 10:48:59;;;;;;;0.93;0.70;;;;;;;20.22;53.14;100100.00;5033570;28;19909;-44
2023/10/31 10:51:31;;;;;;;1.30;0.60;;;;;;;20.22;53.26;100105.41;5032926;28;20040;-48
2023/10/31 10:54:27;;;;;;;1.15;0.80;;;;;;;20.21;53.30;100103.72;5033781;28;20030;-46
2023/10/31 10:57:15;;;;;;;1.00;0.50;;;;;;;20.22;53.58;100103.53;5017009;28;20037;-45
2023/10/31 10:59:42;;;;;;;1.65;0.98;;;;;;;20.27;53.22;100108.34;5035423;28;20565;-44
2023/10/31 11:02:10;;;;;;;1.15;0.50;;;;;;;20.22;53.31;100091.91;5022566;28;20037;-44
2023/10/31 11:04:36;;;;;;;4.57;0.80;;;;;;;20.31;53.38;100109.63;5028170;28;20034;-44
2023/10/31 11:07:02;;;;;;;1.27;0.75;;;;;;;20.32;53.10;100107.75;5011726;28;20030;-46
2023/10/31 11:09:31;;;;;;;4.45;0.93;;;;;;;20.18;52.87;100082.53;5034630;28;20033;-44
2023/10/31 11:11:56;;;;;;;;;;;;;;;20.36;52.90;100101.75;5018207;28;20058;-44
2023/10/31 11:14:22;;;;;;;1.35;0.70;;;;;;;20.32;52.99;100091.56;5016880;28;19936;-45
2023/10/31 11:16:56;;;;;;;1.75;1.00;;;;;;;20.40;52.82;100104.91;5017893;28;20065;-45
2023/10/31 11:19:22;;;;;;;1.15;0.70;;;;;;;20.41;52.73;100115.50;5010375;28;20030;-44
2023/10/31 11:22:05;;;;;;;2.15;0.93;;;;;;;20.44;52.89;100109.69;5014030;28;20085;-45
2023/10/31 11:24:35;;;;;;;1.05;0.75;;;;;;;20.47;52.78;100124.66;5012798;28;20044;-47
2023/10/31 11:27:02;;;;;;;2.15;0.52;;;;;;;20.51;52.72;100122.44;5006948;28;20022;-44